sensor_id;sensor_type;location;lat;lon;timestamp;P1;durP1;ratioP1;P2;durP2;ratioP2
2105;SDS011;1059;52.548;13.408;2023-03-16T00:01:59;5.23;;;2.70;;
2105;SDS011;1059;52.548;13.408;2023-03-16T00:04:27;3.00;;;2.00;;
2105;SDS011;1059;52.548;13.408;2023-03-16T00:06:54;7.23;;;3.40;;
2105;SDS011;1059;52.548;13.408;2023-03-16T00:09:21;3.10;;;2.40;;
2105;SDS011;1059;52.548;13.408;2023-03-16T00:11:54;5.20;;;3.20;;
2105;SDS011;1059;52.548;13.408;2023-03-16T00:14:22;5.30;;;2.37;;
2105;SDS011;1059;52.548;13.408;2023-03-16T00:16:50;10.83;;;3.30;;
2105;SDS011;1059;52.548;13.408;2023-03-16T00:19:17;10.80;;;2.83;;
2105;SDS011;1059;52.548;13.408;2023-03-16T00:21:46;5.60;;;2.80;;
2105;SDS011;1059;52.548;13.408;2023-03-16T00:24:14;5.73;;;2.40;;
2105;SDS011;1059;52.548;13.408;2023-03-16T00:26:42;4.73;;;2.23;;
2105;SDS011;1059;52.548;13.408;2023-03-16T00:29:09;3.10;;;2.37;;
2105;SDS011;1059;52.548;13.408;2023-03-16T00:31:36;8.47;;;3.00;;
2105;SDS011;1059;52.548;13.408;2023-03-16T00:34:05;5.10;;;2.30;;
2105;SDS011;1059;52.548;13.408;2023-03-16T00:36:32;5.00;;;2.40;;
2105;SDS011;1059;52.548;13.408;2023-03-16T00:39:02;5.07;;;2.77;;
2105;SDS011;1059;52.548;13.408;2023-03-16T00:41:29;2.70;;;2.23;;
2105;SDS011;1059;52.548;13.408;2023-03-16T00:43:56;7.73;;;2.40;;
2105;SDS011;1059;52.548;13.408;2023-03-16T00:46:23;7.67;;;2.80;;
2105;SDS011;1059;52.548;13.408;2023-03-16T00:48:50;6.83;;;3.00;;
2105;SDS011;1059;52.548;13.408;2023-03-16T00:51:19;7.10;;;3.00;;
2105;SDS011;1059;52.548;13.408;2023-03-16T00:53:47;7.97;;;3.30;;
2105;SDS011;1059;52.548;13.408;2023-03-16T00:56:14;5.53;;;2.60;;
2105;SDS011;1059;52.548;13.408;2023-03-16T00:58:42;6.60;;;3.10;;
2105;SDS011;1059;52.548;13.408;2023-03-16T01:01:10;8.90;;;3.87;;
2105;SDS011;1059;52.548;13.408;2023-03-16T01:03:38;11.33;;;2.40;;
2105;SDS011;1059;52.548;13.408;2023-03-16T01:06:06;6.90;;;2.50;;
2105;SDS011;1059;52.548;13.408;2023-03-16T01:08:35;6.20;;;2.80;;
2105;SDS011;1059;52.548;13.408;2023-03-16T01:11:03;2.00;;;1.73;;
2105;SDS011;1059;52.548;13.408;2023-03-16T01:13:30;4.50;;;2.50;;
2105;SDS011;1059;52.548;13.408;2023-03-16T01:15:58;6.37;;;2.60;;
2105;SDS011;1059;52.548;13.408;2023-03-16T01:18:28;4.43;;;2.47;;
2105;SDS011;1059;52.548;13.408;2023-03-16T01:20:58;5.60;;;2.73;;
2105;SDS011;1059;52.548;13.408;2023-03-16T01:23:25;3.17;;;2.23;;
2105;SDS011;1059;52.548;13.408;2023-03-16T01:25:55;4.33;;;2.20;;
2105;SDS011;1059;52.548;13.408;2023-03-16T01:28:24;5.37;;;2.57;;
2105;SDS011;1059;52.548;13.408;2023-03-16T01:30:52;8.53;;;2.83;;
2105;SDS011;1059;52.548;13.408;2023-03-16T01:33:26;4.37;;;2.30;;
2105;SDS011;1059;52.548;13.408;2023-03-16T01:35:54;5.10;;;2.43;;
2105;SDS011;1059;52.548;13.408;2023-03-16T01:38:22;4.13;;;2.50;;
2105;SDS011;1059;52.548;13.408;2023-03-16T01:40:50;6.27;;;2.30;;
2105;SDS011;1059;52.548;13.408;2023-03-16T01:43:20;5.57;;;2.70;;
2105;SDS011;1059;52.548;13.408;2023-03-16T01:45:57;5.90;;;2.63;;
2105;SDS011;1059;52.548;13.408;2023-03-16T01:48:56;7.90;;;2.90;;
2105;SDS011;1059;52.548;13.408;2023-03-16T01:51:30;4.63;;;2.33;;
2105;SDS011;1059;52.548;13.408;2023-03-16T01:54:02;4.17;;;2.53;;
2105;SDS011;1059;52.548;13.408;2023-03-16T01:56:33;5.20;;;2.67;;
2105;SDS011;1059;52.548;13.408;2023-03-16T01:59:08;8.60;;;3.00;;
2105;SDS011;1059;52.548;13.408;2023-03-16T02:01:39;5.20;;;2.40;;
2105;SDS011;1059;52.548;13.408;2023-03-16T02:04:09;8.93;;;2.80;;
2105;SDS011;1059;52.548;13.408;2023-03-16T02:06:47;3.53;;;2.27;;
2105;SDS011;1059;52.548;13.408;2023-03-16T02:09:14;3.70;;;2.67;;
2105;SDS011;1059;52.548;13.408;2023-03-16T02:11:43;2.23;;;2.00;;
2105;SDS011;1059;52.548;13.408;2023-03-16T02:14:12;4.43;;;2.37;;
2105;SDS011;1059;52.548;13.408;2023-03-16T02:16:39;5.80;;;2.43;;
2105;SDS011;1059;52.548;13.408;2023-03-16T02:19:08;2.90;;;2.10;;
2105;SDS011;1059;52.548;13.408;2023-03-16T02:21:41;6.27;;;3.40;;
2105;SDS011;1059;52.548;13.408;2023-03-16T02:24:14;6.10;;;2.40;;
2105;SDS011;1059;52.548;13.408;2023-03-16T02:26:42;3.10;;;2.23;;
2105;SDS011;1059;52.548;13.408;2023-03-16T02:29:16;5.10;;;2.70;;
2105;SDS011;1059;52.548;13.408;2023-03-16T02:31:55;5.17;;;3.00;;
2105;SDS011;1059;52.548;13.408;2023-03-16T02:34:23;4.50;;;2.87;;
2105;SDS011;1059;52.548;13.408;2023-03-16T02:36:52;5.30;;;2.53;;
2105;SDS011;1059;52.548;13.408;2023-03-16T02:39:19;5.70;;;2.50;;
2105;SDS011;1059;52.548;13.408;2023-03-16T02:41:46;3.10;;;2.13;;
2105;SDS011;1059;52.548;13.408;2023-03-16T02:44:14;4.83;;;2.30;;
2105;SDS011;1059;52.548;13.408;2023-03-16T02:46:43;6.67;;;2.80;;
2105;SDS011;1059;52.548;13.408;2023-03-16T02:49:14;3.73;;;2.40;;
2105;SDS011;1059;52.548;13.408;2023-03-16T02:51:45;7.20;;;2.60;;
2105;SDS011;1059;52.548;13.408;2023-03-16T02:54:12;3.20;;;2.07;;
2105;SDS011;1059;52.548;13.408;2023-03-16T02:56:39;5.60;;;2.30;;
2105;SDS011;1059;52.548;13.408;2023-03-16T02:59:06;10.63;;;2.90;;
2105;SDS011;1059;52.548;13.408;2023-03-16T03:01:33;4.07;;;2.70;;
2105;SDS011;1059;52.548;13.408;2023-03-16T03:04:00;4.67;;;2.10;;
2105;SDS011;1059;52.548;13.408;2023-03-16T03:06:29;7.10;;;2.37;;
2105;SDS011;1059;52.548;13.408;2023-03-16T03:08:56;5.43;;;2.60;;
2105;SDS011;1059;52.548;13.408;2023-03-16T03:11:23;7.50;;;2.63;;
2105;SDS011;1059;52.548;13.408;2023-03-16T03:13:50;6.40;;;2.47;;
2105;SDS011;1059;52.548;13.408;2023-03-16T03:16:17;4.50;;;2.37;;
2105;SDS011;1059;52.548;13.408;2023-03-16T03:18:44;8.07;;;3.87;;
2105;SDS011;1059;52.548;13.408;2023-03-16T03:21:10;3.07;;;2.10;;
2105;SDS011;1059;52.548;13.408;2023-03-16T03:23:39;4.40;;;2.20;;
2105;SDS011;1059;52.548;13.408;2023-03-16T03:26:06;6.00;;;2.50;;
2105;SDS011;1059;52.548;13.408;2023-03-16T03:28:33;5.00;;;1.97;;
2105;SDS011;1059;52.548;13.408;2023-03-16T03:31:00;4.43;;;2.33;;
2105;SDS011;1059;52.548;13.408;2023-03-16T03:33:27;7.40;;;2.63;;
2105;SDS011;1059;52.548;13.408;2023-03-16T03:35:53;4.70;;;2.27;;
2105;SDS011;1059;52.548;13.408;2023-03-16T03:38:21;3.73;;;2.43;;
2105;SDS011;1059;52.548;13.408;2023-03-16T03:40:50;6.70;;;2.80;;
2105;SDS011;1059;52.548;13.408;2023-03-16T03:43:18;6.63;;;2.50;;
2105;SDS011;1059;52.548;13.408;2023-03-16T03:45:45;3.67;;;2.63;;
2105;SDS011;1059;52.548;13.408;2023-03-16T03:48:12;3.43;;;2.30;;
2105;SDS011;1059;52.548;13.408;2023-03-16T03:50:39;8.67;;;2.90;;
2105;SDS011;1059;52.548;13.408;2023-03-16T03:53:06;11.60;;;3.07;;
2105;SDS011;1059;52.548;13.408;2023-03-16T03:55:32;3.80;;;2.73;;
2105;SDS011;1059;52.548;13.408;2023-03-16T03:58:01;3.20;;;2.30;;
2105;SDS011;1059;52.548;13.408;2023-03-16T04:00:28;4.63;;;2.50;;
2105;SDS011;1059;52.548;13.408;2023-03-16T04:02:55;6.30;;;2.20;;
2105;SDS011;1059;52.548;13.408;2023-03-16T04:05:21;6.27;;;2.77;;
2105;SDS011;1059;52.548;13.408;2023-03-16T04:07:51;7.20;;;2.33;;
2105;SDS011;1059;52.548;13.408;2023-03-16T04:10:21;9.30;;;2.60;;
2105;SDS011;1059;52.548;13.408;2023-03-16T04:12:48;5.20;;;2.40;;
2105;SDS011;1059;52.548;13.408;2023-03-16T04:15:17;1.80;;;1.70;;
2105;SDS011;1059;52.548;13.408;2023-03-16T04:17:44;4.43;;;1.93;;
2105;SDS011;1059;52.548;13.408;2023-03-16T04:20:11;9.57;;;2.90;;
2105;SDS011;1059;52.548;13.408;2023-03-16T04:22:39;2.70;;;2.03;;
2105;SDS011;1059;52.548;13.408;2023-03-16T04:25:06;5.20;;;2.60;;
2105;SDS011;1059;52.548;13.408;2023-03-16T04:27:34;8.53;;;2.70;;
2105;SDS011;1059;52.548;13.408;2023-03-16T04:30:01;2.67;;;1.83;;
2105;SDS011;1059;52.548;13.408;2023-03-16T04:32:31;6.70;;;2.37;;
2105;SDS011;1059;52.548;13.408;2023-03-16T04:34:57;5.50;;;2.20;;
2105;SDS011;1059;52.548;13.408;2023-03-16T04:37:25;8.90;;;3.40;;
2105;SDS011;1059;52.548;13.408;2023-03-16T04:39:52;2.43;;;1.90;;
2105;SDS011;1059;52.548;13.408;2023-03-16T04:42:19;5.13;;;2.77;;
2105;SDS011;1059;52.548;13.408;2023-03-16T04:44:47;5.60;;;2.20;;
2105;SDS011;1059;52.548;13.408;2023-03-16T04:47:14;4.77;;;2.27;;
2105;SDS011;1059;52.548;13.408;2023-03-16T04:49:43;8.90;;;2.40;;
2105;SDS011;1059;52.548;13.408;2023-03-16T04:52:10;8.30;;;2.40;;
2105;SDS011;1059;52.548;13.408;2023-03-16T04:54:37;6.80;;;2.80;;
2105;SDS011;1059;52.548;13.408;2023-03-16T04:57:04;4.20;;;2.10;;
2105;SDS011;1059;52.548;13.408;2023-03-16T04:59:32;5.53;;;2.40;;
2105;SDS011;1059;52.548;13.408;2023-03-16T05:01:59;4.90;;;2.43;;
2105;SDS011;1059;52.548;13.408;2023-03-16T05:04:26;3.83;;;2.30;;
2105;SDS011;1059;52.548;13.408;2023-03-16T05:06:54;5.17;;;2.47;;
2105;SDS011;1059;52.548;13.408;2023-03-16T05:09:21;3.67;;;2.37;;
2105;SDS011;1059;52.548;13.408;2023-03-16T05:11:48;5.13;;;2.27;;
2105;SDS011;1059;52.548;13.408;2023-03-16T05:14:14;6.33;;;2.47;;
2105;SDS011;1059;52.548;13.408;2023-03-16T05:16:41;5.30;;;2.53;;
2105;SDS011;1059;52.548;13.408;2023-03-16T05:19:08;3.10;;;2.10;;
2105;SDS011;1059;52.548;13.408;2023-03-16T05:21:35;12.00;;;3.67;;
2105;SDS011;1059;52.548;13.408;2023-03-16T05:24:04;10.87;;;2.53;;
2105;SDS011;1059;52.548;13.408;2023-03-16T05:26:32;3.50;;;2.70;;
2105;SDS011;1059;52.548;13.408;2023-03-16T05:28:59;4.93;;;3.00;;
2105;SDS011;1059;52.548;13.408;2023-03-16T05:31:26;2.90;;;2.33;;
2105;SDS011;1059;52.548;13.408;2023-03-16T05:33:56;5.93;;;2.33;;
2105;SDS011;1059;52.548;13.408;2023-03-16T05:36:23;6.80;;;2.50;;
2105;SDS011;1059;52.548;13.408;2023-03-16T05:38:50;4.20;;;2.40;;
2105;SDS011;1059;52.548;13.408;2023-03-16T05:41:19;10.67;;;3.33;;
2105;SDS011;1059;52.548;13.408;2023-03-16T05:43:46;6.37;;;2.67;;
2105;SDS011;1059;52.548;13.408;2023-03-16T05:46:13;6.23;;;2.30;;
2105;SDS011;1059;52.548;13.408;2023-03-16T05:48:40;4.90;;;2.60;;
2105;SDS011;1059;52.548;13.408;2023-03-16T05:51:07;8.93;;;3.00;;
2105;SDS011;1059;52.548;13.408;2023-03-16T05:53:34;5.27;;;2.90;;
2105;SDS011;1059;52.548;13.408;2023-03-16T05:56:01;3.53;;;3.00;;
2105;SDS011;1059;52.548;13.408;2023-03-16T05:58:29;8.67;;;3.27;;
2105;SDS011;1059;52.548;13.408;2023-03-16T06:00:57;7.37;;;3.20;;
2105;SDS011;1059;52.548;13.408;2023-03-16T06:03:26;2.97;;;2.30;;
2105;SDS011;1059;52.548;13.408;2023-03-16T06:05:53;4.10;;;2.80;;
2105;SDS011;1059;52.548;13.408;2023-03-16T06:08:20;7.80;;;2.70;;
2105;SDS011;1059;52.548;13.408;2023-03-16T06:10:46;7.27;;;3.40;;
2105;SDS011;1059;52.548;13.408;2023-03-16T06:13:14;6.70;;;2.10;;
2105;SDS011;1059;52.548;13.408;2023-03-16T06:15:42;6.30;;;3.10;;
2105;SDS011;1059;52.548;13.408;2023-03-16T06:18:09;6.73;;;2.80;;
2105;SDS011;1059;52.548;13.408;2023-03-16T06:20:36;8.07;;;2.90;;
2105;SDS011;1059;52.548;13.408;2023-03-16T06:23:02;5.50;;;2.73;;
2105;SDS011;1059;52.548;13.408;2023-03-16T06:25:29;4.60;;;2.73;;
2105;SDS011;1059;52.548;13.408;2023-03-16T06:27:56;4.93;;;2.50;;
2105;SDS011;1059;52.548;13.408;2023-03-16T06:30:23;5.50;;;3.20;;
2105;SDS011;1059;52.548;13.408;2023-03-16T06:32:51;6.00;;;3.33;;
2105;SDS011;1059;52.548;13.408;2023-03-16T06:35:18;4.63;;;3.10;;
2105;SDS011;1059;52.548;13.408;2023-03-16T06:37:45;10.23;;;3.70;;
2105;SDS011;1059;52.548;13.408;2023-03-16T06:40:12;9.17;;;3.70;;
2105;SDS011;1059;52.548;13.408;2023-03-16T06:42:39;6.63;;;3.20;;
2105;SDS011;1059;52.548;13.408;2023-03-16T06:45:06;3.43;;;2.63;;
2105;SDS011;1059;52.548;13.408;2023-03-16T06:47:34;5.07;;;2.83;;
2105;SDS011;1059;52.548;13.408;2023-03-16T06:50:02;7.33;;;3.37;;
2105;SDS011;1059;52.548;13.408;2023-03-16T06:52:30;6.93;;;2.50;;
2105;SDS011;1059;52.548;13.408;2023-03-16T06:54:56;13.53;;;3.37;;
2105;SDS011;1059;52.548;13.408;2023-03-16T06:57:24;7.97;;;3.00;;
2105;SDS011;1059;52.548;13.408;2023-03-16T06:59:50;4.07;;;2.40;;
2105;SDS011;1059;52.548;13.408;2023-03-16T07:02:17;7.53;;;3.07;;
2105;SDS011;1059;52.548;13.408;2023-03-16T07:04:47;6.37;;;3.03;;
2105;SDS011;1059;52.548;13.408;2023-03-16T07:07:15;7.53;;;3.33;;
2105;SDS011;1059;52.548;13.408;2023-03-16T07:09:43;4.53;;;3.00;;
2105;SDS011;1059;52.548;13.408;2023-03-16T07:12:10;7.23;;;3.10;;
2105;SDS011;1059;52.548;13.408;2023-03-16T07:14:37;7.13;;;2.97;;
2105;SDS011;1059;52.548;13.408;2023-03-16T07:17:06;3.90;;;2.90;;
2105;SDS011;1059;52.548;13.408;2023-03-16T07:19:33;9.43;;;3.80;;
2105;SDS011;1059;52.548;13.408;2023-03-16T07:22:00;4.93;;;2.90;;
2105;SDS011;1059;52.548;13.408;2023-03-16T07:24:29;4.50;;;2.67;;
2105;SDS011;1059;52.548;13.408;2023-03-16T07:26:56;7.53;;;3.20;;
2105;SDS011;1059;52.548;13.408;2023-03-16T07:29:23;12.93;;;3.17;;
2105;SDS011;1059;52.548;13.408;2023-03-16T07:31:50;4.97;;;2.40;;
2105;SDS011;1059;52.548;13.408;2023-03-16T07:34:17;4.23;;;2.20;;
2105;SDS011;1059;52.548;13.408;2023-03-16T07:36:45;4.80;;;2.20;;
2105;SDS011;1059;52.548;13.408;2023-03-16T07:39:12;6.77;;;2.33;;
2105;SDS011;1059;52.548;13.408;2023-03-16T07:41:44;5.00;;;2.00;;
2105;SDS011;1059;52.548;13.408;2023-03-16T07:44:11;4.60;;;2.80;;
2105;SDS011;1059;52.548;13.408;2023-03-16T07:46:38;7.40;;;2.90;;
2105;SDS011;1059;52.548;13.408;2023-03-16T07:49:05;5.97;;;2.67;;
2105;SDS011;1059;52.548;13.408;2023-03-16T07:51:33;5.20;;;2.83;;
2105;SDS011;1059;52.548;13.408;2023-03-16T07:54:00;4.20;;;2.13;;
2105;SDS011;1059;52.548;13.408;2023-03-16T07:56:28;5.80;;;2.40;;
2105;SDS011;1059;52.548;13.408;2023-03-16T07:58:56;5.10;;;2.33;;
2105;SDS011;1059;52.548;13.408;2023-03-16T08:01:23;4.93;;;2.40;;
2105;SDS011;1059;52.548;13.408;2023-03-16T08:03:50;3.70;;;2.03;;
2105;SDS011;1059;52.548;13.408;2023-03-16T08:06:17;6.77;;;2.50;;
2105;SDS011;1059;52.548;13.408;2023-03-16T08:08:45;7.00;;;2.33;;
2105;SDS011;1059;52.548;13.408;2023-03-16T08:11:12;4.90;;;2.20;;
2105;SDS011;1059;52.548;13.408;2023-03-16T08:13:39;8.13;;;2.30;;
2105;SDS011;1059;52.548;13.408;2023-03-16T08:16:09;4.30;;;2.70;;
2105;SDS011;1059;52.548;13.408;2023-03-16T08:18:37;5.23;;;2.07;;
2105;SDS011;1059;52.548;13.408;2023-03-16T08:21:06;3.20;;;2.20;;
2105;SDS011;1059;52.548;13.408;2023-03-16T08:23:33;3.07;;;2.10;;
2105;SDS011;1059;52.548;13.408;2023-03-16T08:26:00;5.00;;;2.67;;
2105;SDS011;1059;52.548;13.408;2023-03-16T08:28:32;9.60;;;2.50;;
2105;SDS011;1059;52.548;13.408;2023-03-16T08:31:00;5.50;;;2.17;;
2105;SDS011;1059;52.548;13.408;2023-03-16T08:33:28;5.40;;;2.23;;
2105;SDS011;1059;52.548;13.408;2023-03-16T08:35:55;3.63;;;1.80;;
2105;SDS011;1059;52.548;13.408;2023-03-16T08:38:22;5.03;;;2.20;;
2105;SDS011;1059;52.548;13.408;2023-03-16T08:40:49;6.90;;;2.63;;
2105;SDS011;1059;52.548;13.408;2023-03-16T08:43:17;6.87;;;2.47;;
2105;SDS011;1059;52.548;13.408;2023-03-16T08:45:44;5.10;;;1.77;;
2105;SDS011;1059;52.548;13.408;2023-03-16T08:48:11;7.70;;;1.77;;
2105;SDS011;1059;52.548;13.408;2023-03-16T08:50:40;6.63;;;2.23;;
2105;SDS011;1059;52.548;13.408;2023-03-16T08:53:08;4.47;;;2.07;;
2105;SDS011;1059;52.548;13.408;2023-03-16T08:55:36;6.50;;;2.43;;
2105;SDS011;1059;52.548;13.408;2023-03-16T08:58:04;2.90;;;2.17;;
2105;SDS011;1059;52.548;13.408;2023-03-16T09:00:31;7.23;;;2.30;;
2105;SDS011;1059;52.548;13.408;2023-03-16T09:02:58;7.90;;;2.40;;
2105;SDS011;1059;52.548;13.408;2023-03-16T09:05:26;4.00;;;2.30;;
2105;SDS011;1059;52.548;13.408;2023-03-16T09:07:56;6.33;;;2.10;;
2105;SDS011;1059;52.548;13.408;2023-03-16T09:10:24;6.10;;;2.10;;
2105;SDS011;1059;52.548;13.408;2023-03-16T09:12:51;7.63;;;1.83;;
2105;SDS011;1059;52.548;13.408;2023-03-16T09:15:19;2.83;;;2.10;;
2105;SDS011;1059;52.548;13.408;2023-03-16T09:17:46;7.60;;;2.23;;
2105;SDS011;1059;52.548;13.408;2023-03-16T09:20:15;5.87;;;2.13;;
2105;SDS011;1059;52.548;13.408;2023-03-16T09:22:42;8.00;;;2.30;;
2105;SDS011;1059;52.548;13.408;2023-03-16T09:25:11;6.20;;;1.80;;
2105;SDS011;1059;52.548;13.408;2023-03-16T09:27:38;6.70;;;1.60;;
2105;SDS011;1059;52.548;13.408;2023-03-16T09:30:05;4.70;;;1.77;;
2105;SDS011;1059;52.548;13.408;2023-03-16T09:32:34;3.30;;;1.33;;
2105;SDS011;1059;52.548;13.408;2023-03-16T09:35:01;3.60;;;1.50;;
2105;SDS011;1059;52.548;13.408;2023-03-16T09:37:30;9.83;;;1.80;;
2105;SDS011;1059;52.548;13.408;2023-03-16T09:39:57;5.80;;;1.60;;
2105;SDS011;1059;52.548;13.408;2023-03-16T09:42:26;3.67;;;1.23;;
2105;SDS011;1059;52.548;13.408;2023-03-16T09:45:01;6.50;;;1.87;;
2105;SDS011;1059;52.548;13.408;2023-03-16T09:47:34;3.83;;;1.80;;
2105;SDS011;1059;52.548;13.408;2023-03-16T09:50:04;6.40;;;2.00;;
2105;SDS011;1059;52.548;13.408;2023-03-16T09:52:34;9.33;;;2.20;;
2105;SDS011;1059;52.548;13.408;2023-03-16T09:55:06;9.17;;;2.33;;
2105;SDS011;1059;52.548;13.408;2023-03-16T09:57:43;3.70;;;2.13;;
2105;SDS011;1059;52.548;13.408;2023-03-16T10:00:14;2.60;;;1.53;;
2105;SDS011;1059;52.548;13.408;2023-03-16T10:02:57;4.47;;;1.87;;
2105;SDS011;1059;52.548;13.408;2023-03-16T10:05:30;4.73;;;1.40;;
2105;SDS011;1059;52.548;13.408;2023-03-16T10:08:02;6.83;;;1.57;;
2105;SDS011;1059;52.548;13.408;2023-03-16T10:10:42;2.43;;;1.50;;
2105;SDS011;1059;52.548;13.408;2023-03-16T10:13:31;4.20;;;1.53;;
2105;SDS011;1059;52.548;13.408;2023-03-16T10:16:04;5.20;;;1.80;;
2105;SDS011;1059;52.548;13.408;2023-03-16T10:18:37;3.67;;;1.20;;
2105;SDS011;1059;52.548;13.408;2023-03-16T10:21:10;3.50;;;1.40;;
2105;SDS011;1059;52.548;13.408;2023-03-16T10:23:39;3.50;;;1.20;;
2105;SDS011;1059;52.548;13.408;2023-03-16T10:26:09;2.30;;;1.27;;
2105;SDS011;1059;52.548;13.408;2023-03-16T10:28:40;2.70;;;1.33;;
2105;SDS011;1059;52.548;13.408;2023-03-16T10:31:09;4.27;;;1.60;;
2105;SDS011;1059;52.548;13.408;2023-03-16T10:33:38;4.80;;;1.60;;
2105;SDS011;1059;52.548;13.408;2023-03-16T10:36:11;5.57;;;1.93;;
2105;SDS011;1059;52.548;13.408;2023-03-16T10:38:40;4.60;;;1.60;;
2105;SDS011;1059;52.548;13.408;2023-03-16T10:41:22;5.73;;;1.47;;
2105;SDS011;1059;52.548;13.408;2023-03-16T10:43:54;3.57;;;1.30;;
2105;SDS011;1059;52.548;13.408;2023-03-16T10:46:23;2.63;;;1.13;;
2105;SDS011;1059;52.548;13.408;2023-03-16T10:48:52;2.23;;;1.30;;
2105;SDS011;1059;52.548;13.408;2023-03-16T10:51:24;1.87;;;1.23;;
2105;SDS011;1059;52.548;13.408;2023-03-16T10:53:55;5.37;;;1.33;;
2105;SDS011;1059;52.548;13.408;2023-03-16T10:56:30;2.77;;;1.33;;
2105;SDS011;1059;52.548;13.408;2023-03-16T10:59:11;2.30;;;1.40;;
2105;SDS011;1059;52.548;13.408;2023-03-16T11:01:43;3.97;;;1.70;;
2105;SDS011;1059;52.548;13.408;2023-03-16T11:04:13;5.43;;;1.80;;
2105;SDS011;1059;52.548;13.408;2023-03-16T11:06:46;1.73;;;1.53;;
2105;SDS011;1059;52.548;13.408;2023-03-16T11:09:18;1.80;;;1.20;;
2105;SDS011;1059;52.548;13.408;2023-03-16T11:11:48;3.03;;;1.53;;
2105;SDS011;1059;52.548;13.408;2023-03-16T11:14:18;3.23;;;1.60;;
2105;SDS011;1059;52.548;13.408;2023-03-16T11:16:47;2.57;;;1.60;;
2105;SDS011;1059;52.548;13.408;2023-03-16T11:19:20;2.33;;;1.40;;
2105;SDS011;1059;52.548;13.408;2023-03-16T11:21:51;3.93;;;1.40;;
2105;SDS011;1059;52.548;13.408;2023-03-16T11:24:23;4.43;;;1.40;;
2105;SDS011;1059;52.548;13.408;2023-03-16T11:26:55;1.80;;;1.30;;
2105;SDS011;1059;52.548;13.408;2023-03-16T11:29:26;3.80;;;1.70;;
2105;SDS011;1059;52.548;13.408;2023-03-16T11:32:02;4.80;;;1.67;;
2105;SDS011;1059;52.548;13.408;2023-03-16T11:34:31;4.60;;;1.73;;
2105;SDS011;1059;52.548;13.408;2023-03-16T11:37:02;4.80;;;1.77;;
2105;SDS011;1059;52.548;13.408;2023-03-16T11:39:38;3.03;;;1.60;;
2105;SDS011;1059;52.548;13.408;2023-03-16T11:42:16;4.43;;;1.57;;
2105;SDS011;1059;52.548;13.408;2023-03-16T11:44:58;3.40;;;1.70;;
2105;SDS011;1059;52.548;13.408;2023-03-16T11:47:50;3.63;;;1.67;;
2105;SDS011;1059;52.548;13.408;2023-03-16T11:50:30;2.67;;;1.30;;
2105;SDS011;1059;52.548;13.408;2023-03-16T11:53:04;4.67;;;1.53;;
2105;SDS011;1059;52.548;13.408;2023-03-16T11:55:43;2.50;;;1.50;;
2105;SDS011;1059;52.548;13.408;2023-03-16T11:58:26;4.87;;;1.47;;
2105;SDS011;1059;52.548;13.408;2023-03-16T12:01:09;3.20;;;1.73;;
2105;SDS011;1059;52.548;13.408;2023-03-16T12:03:45;3.53;;;1.40;;
2105;SDS011;1059;52.548;13.408;2023-03-16T12:06:39;3.50;;;1.60;;
2105;SDS011;1059;52.548;13.408;2023-03-16T12:12:27;3.87;;;2.37;;
2105;SDS011;1059;52.548;13.408;2023-03-16T12:15:08;2.40;;;1.40;;
2105;SDS011;1059;52.548;13.408;2023-03-16T12:17:49;4.40;;;1.40;;
2105;SDS011;1059;52.548;13.408;2023-03-16T12:20:21;3.10;;;1.23;;
2105;SDS011;1059;52.548;13.408;2023-03-16T12:22:52;2.30;;;1.13;;
2105;SDS011;1059;52.548;13.408;2023-03-16T12:25:25;5.43;;;2.60;;
2105;SDS011;1059;52.548;13.408;2023-03-16T12:27:56;2.57;;;1.60;;
2105;SDS011;1059;52.548;13.408;2023-03-16T12:30:28;3.50;;;1.27;;
2105;SDS011;1059;52.548;13.408;2023-03-16T12:33:05;1.50;;;1.23;;
2105;SDS011;1059;52.548;13.408;2023-03-16T12:35:41;2.13;;;1.07;;
2105;SDS011;1059;52.548;13.408;2023-03-16T12:38:15;4.40;;;1.30;;
2105;SDS011;1059;52.548;13.408;2023-03-16T12:40:48;1.63;;;1.00;;
2105;SDS011;1059;52.548;13.408;2023-03-16T12:46:18;3.60;;;1.40;;
2105;SDS011;1059;52.548;13.408;2023-03-16T12:48:54;4.43;;;1.77;;
2105;SDS011;1059;52.548;13.408;2023-03-16T12:51:31;2.93;;;1.27;;
2105;SDS011;1059;52.548;13.408;2023-03-16T12:53:59;2.03;;;1.20;;
2105;SDS011;1059;52.548;13.408;2023-03-16T12:56:28;2.40;;;1.13;;
2105;SDS011;1059;52.548;13.408;2023-03-16T12:58:57;3.17;;;1.47;;
2105;SDS011;1059;52.548;13.408;2023-03-16T13:01:26;4.33;;;1.43;;
2105;SDS011;1059;52.548;13.408;2023-03-16T13:04:00;2.30;;;1.63;;
2105;SDS011;1059;52.548;13.408;2023-03-16T13:06:34;3.43;;;1.50;;
2105;SDS011;1059;52.548;13.408;2023-03-16T13:09:02;3.30;;;1.43;;
2105;SDS011;1059;52.548;13.408;2023-03-16T13:11:39;2.50;;;1.47;;
2105;SDS011;1059;52.548;13.408;2023-03-16T13:14:08;4.03;;;1.80;;
2105;SDS011;1059;52.548;13.408;2023-03-16T13:16:39;3.30;;;1.47;;
2105;SDS011;1059;52.548;13.408;2023-03-16T13:19:24;4.47;;;2.20;;
2105;SDS011;1059;52.548;13.408;2023-03-16T13:21:59;5.93;;;1.60;;
2105;SDS011;1059;52.548;13.408;2023-03-16T13:24:35;4.40;;;1.60;;
2105;SDS011;1059;52.548;13.408;2023-03-16T13:27:05;6.40;;;1.37;;
2105;SDS011;1059;52.548;13.408;2023-03-16T13:29:50;3.33;;;1.17;;
2105;SDS011;1059;52.548;13.408;2023-03-16T13:32:22;1.83;;;0.90;;
2105;SDS011;1059;52.548;13.408;2023-03-16T13:34:55;2.97;;;1.00;;
2105;SDS011;1059;52.548;13.408;2023-03-16T13:37:23;2.33;;;1.10;;
2105;SDS011;1059;52.548;13.408;2023-03-16T13:39:53;2.17;;;1.40;;
2105;SDS011;1059;52.548;13.408;2023-03-16T13:42:21;1.83;;;1.13;;
2105;SDS011;1059;52.548;13.408;2023-03-16T13:44:53;2.37;;;1.30;;
2105;SDS011;1059;52.548;13.408;2023-03-16T13:47:23;1.83;;;0.93;;
2105;SDS011;1059;52.548;13.408;2023-03-16T13:49:54;2.53;;;1.43;;
2105;SDS011;1059;52.548;13.408;2023-03-16T13:52:24;3.10;;;1.30;;
2105;SDS011;1059;52.548;13.408;2023-03-16T13:54:54;4.47;;;1.27;;
2105;SDS011;1059;52.548;13.408;2023-03-16T13:57:23;2.10;;;1.10;;
2105;SDS011;1059;52.548;13.408;2023-03-16T13:59:59;3.77;;;1.17;;
2105;SDS011;1059;52.548;13.408;2023-03-16T14:02:29;2.13;;;0.80;;
2105;SDS011;1059;52.548;13.408;2023-03-16T14:05:09;2.70;;;1.10;;
2105;SDS011;1059;52.548;13.408;2023-03-16T14:07:37;2.73;;;1.30;;
2105;SDS011;1059;52.548;13.408;2023-03-16T14:10:04;2.60;;;1.30;;
2105;SDS011;1059;52.548;13.408;2023-03-16T14:12:34;3.87;;;1.53;;
2105;SDS011;1059;52.548;13.408;2023-03-16T14:15:03;2.23;;;1.00;;
2105;SDS011;1059;52.548;13.408;2023-03-16T14:17:32;2.00;;;1.20;;
2105;SDS011;1059;52.548;13.408;2023-03-16T14:19:59;2.60;;;1.33;;
2105;SDS011;1059;52.548;13.408;2023-03-16T14:22:28;3.30;;;1.30;;
2105;SDS011;1059;52.548;13.408;2023-03-16T14:25:00;2.03;;;1.10;;
2105;SDS011;1059;52.548;13.408;2023-03-16T14:27:30;2.67;;;1.23;;
2105;SDS011;1059;52.548;13.408;2023-03-16T14:30:13;1.90;;;1.20;;
2105;SDS011;1059;52.548;13.408;2023-03-16T14:32:52;1.83;;;1.13;;
2105;SDS011;1059;52.548;13.408;2023-03-16T14:35:20;1.90;;;1.10;;
2105;SDS011;1059;52.548;13.408;2023-03-16T14:37:52;3.57;;;1.10;;
2105;SDS011;1059;52.548;13.408;2023-03-16T14:40:21;2.60;;;1.60;;
2105;SDS011;1059;52.548;13.408;2023-03-16T14:42:50;4.03;;;1.10;;
2105;SDS011;1059;52.548;13.408;2023-03-16T14:45:18;2.73;;;1.03;;
2105;SDS011;1059;52.548;13.408;2023-03-16T14:47:47;5.20;;;1.07;;
2105;SDS011;1059;52.548;13.408;2023-03-16T14:50:20;2.17;;;1.13;;
2105;SDS011;1059;52.548;13.408;2023-03-16T14:52:49;2.43;;;1.50;;
2105;SDS011;1059;52.548;13.408;2023-03-16T14:55:19;2.30;;;0.87;;
2105;SDS011;1059;52.548;13.408;2023-03-16T14:57:47;2.90;;;1.20;;
2105;SDS011;1059;52.548;13.408;2023-03-16T15:00:17;4.73;;;1.53;;
2105;SDS011;1059;52.548;13.408;2023-03-16T15:02:55;2.20;;;1.27;;
2105;SDS011;1059;52.548;13.408;2023-03-16T15:05:29;6.50;;;1.50;;
2105;SDS011;1059;52.548;13.408;2023-03-16T15:07:59;2.97;;;1.20;;
2105;SDS011;1059;52.548;13.408;2023-03-16T15:10:28;2.17;;;1.00;;
2105;SDS011;1059;52.548;13.408;2023-03-16T15:12:58;1.97;;;0.93;;
2105;SDS011;1059;52.548;13.408;2023-03-16T15:15:37;2.50;;;1.13;;
2105;SDS011;1059;52.548;13.408;2023-03-16T15:18:05;2.93;;;0.83;;
2105;SDS011;1059;52.548;13.408;2023-03-16T15:20:33;2.40;;;0.90;;
2105;SDS011;1059;52.548;13.408;2023-03-16T15:23:05;2.90;;;1.10;;